sensor_id;sensor_type;location;lat;lon;timestamp;pressure;altitude;pressure_sealevel;temperature;humidity
7730;BME280;3908;52.310;7.230;2023-02-03T00:01:32;51446.31;;;-145.83;100.00
7730;BME280;3908;52.310;7.230;2023-02-03T00:04:19;51487.41;;;-145.83;100.00
7730;BME280;3908;52.310;7.230;2023-02-03T00:07:08;51499.13;;;-145.83;100.00
7730;BME280;3908;52.310;7.230;2023-02-03T00:09:57;51479.56;;;-145.83;100.00
7730;BME280;3908;52.310;7.230;2023-02-03T00:12:44;51477.63;;;-145.83;100.00
7730;BME280;3908;52.310;7.230;2023-02-03T00:15:31;51508.91;;;-145.83;100.00
7730;BME280;3908;52.310;7.230;2023-02-03T00:18:18;51454.13;;;-145.83;100.00
7730;BME280;3908;52.310;7.230;2023-02-03T00:21:05;51501.09;;;-145.83;100.00
7730;BME280;3908;52.310;7.230;2023-02-03T00:23:53;51487.41;;;-145.83;100.00
7730;BME280;3908;52.310;7.230;2023-02-03T00:26:41;51450.22;;;-145.83;100.00
7730;BME280;3908;52.310;7.230;2023-02-03T00:29:28;51473.69;;;-145.83;100.00
7730;BME280;3908;52.310;7.230;2023-02-03T00:32:15;51461.97;;;-145.83;100.00
7730;BME280;3908;52.310;7.230;2023-02-03T00:35:03;51461.97;;;-145.83;100.00
7730;BME280;3908;52.310;7.230;2023-02-03T00:37:58;51473.69;;;-145.83;100.00
7730;BME280;3908;52.310;7.230;2023-02-03T00:40:50;51483.47;;;-145.83;100.00
7730;BME280;3908;52.310;7.230;2023-02-03T00:43:39;51491.31;;;-145.83;100.00
7730;BME280;3908;52.310;7.230;2023-02-03T00:46:26;51487.41;;;-145.83;100.00
7730;BME280;3908;52.310;7.230;2023-02-03T00:49:13;51501.09;;;-145.83;100.00
7730;BME280;3908;52.310;7.230;2023-02-03T00:52:00;51479.56;;;-145.83;100.00
7730;BME280;3908;52.310;7.230;2023-02-03T00:54:47;51469.78;;;-145.83;100.00
7730;BME280;3908;52.310;7.230;2023-02-03T00:57:34;51454.13;;;-145.83;100.00
7730;BME280;3908;52.310;7.230;2023-02-03T01:00:22;51499.13;;;-145.83;100.00
7730;BME280;3908;52.310;7.230;2023-02-03T01:03:09;51471.75;;;-145.83;100.00
7730;BME280;3908;52.310;7.230;2023-02-03T01:06:07;51505.00;;;-145.83;100.00
7730;BME280;3908;52.310;7.230;2023-02-03T01:08:54;51438.50;;;-145.83;100.00
7730;BME280;3908;52.310;7.230;2023-02-03T01:11:41;51489.34;;;-145.83;100.00
7730;BME280;3908;52.310;7.230;2023-02-03T01:14:28;51479.56;;;-145.83;100.00
7730;BME280;3908;52.310;7.230;2023-02-03T01:17:17;51516.75;;;-145.83;100.00
7730;BME280;3908;52.310;7.230;2023-02-03T01:20:05;51465.88;;;-145.83;100.00
7730;BME280;3908;52.310;7.230;2023-02-03T01:22:52;51524.56;;;-145.83;100.00
7730;BME280;3908;52.310;7.230;2023-02-03T01:25:39;51481.53;;;-145.83;100.00
7730;BME280;3908;52.310;7.230;2023-02-03T01:28:26;51450.22;;;-145.83;100.00
7730;BME280;3908;52.310;7.230;2023-02-03T01:31:16;51503.06;;;-145.83;100.00
7730;BME280;3908;52.310;7.230;2023-02-03T01:34:05;51499.13;;;-145.83;100.00
7730;BME280;3908;52.310;7.230;2023-02-03T01:36:52;51475.66;;;-145.83;100.00
7730;BME280;3908;52.310;7.230;2023-02-03T01:39:39;51465.88;;;-145.83;100.00
7730;BME280;3908;52.310;7.230;2023-02-03T01:42:27;51471.75;;;-145.83;100.00
7730;BME280;3908;52.310;7.230;2023-02-03T01:45:24;51495.22;;;-145.83;100.00
7730;BME280;3908;52.310;7.230;2023-02-03T01:48:11;51493.25;;;-145.83;100.00
7730;BME280;3908;52.310;7.230;2023-02-03T01:51:01;51477.63;;;-145.83;100.00
7730;BME280;3908;52.310;7.230;2023-02-03T01:53:51;51495.22;;;-145.83;100.00
7730;BME280;3908;52.310;7.230;2023-02-03T01:56:43;51477.63;;;-145.83;100.00
7730;BME280;3908;52.310;7.230;2023-02-03T01:59:32;51463.91;;;-145.83;100.00
7730;BME280;3908;52.310;7.230;2023-02-03T02:02:20;51475.66;;;-145.83;100.00
7730;BME280;3908;52.310;7.230;2023-02-03T02:05:12;51491.31;;;-145.83;100.00
7730;BME280;3908;52.310;7.230;2023-02-03T02:08:02;51489.34;;;-145.83;100.00
7730;BME280;3908;52.310;7.230;2023-02-03T02:10:49;51489.34;;;-145.83;100.00
7730;BME280;3908;52.310;7.230;2023-02-03T02:13:37;51524.56;;;-145.83;100.00
7730;BME280;3908;52.310;7.230;2023-02-03T02:16:28;51501.09;;;-145.83;100.00
7730;BME280;3908;52.310;7.230;2023-02-03T02:19:50;51456.09;;;-145.83;100.00
7730;BME280;3908;52.310;7.230;2023-02-03T02:23:01;51503.06;;;-145.83;100.00
7730;BME280;3908;52.310;7.230;2023-02-03T02:26:13;51491.31;;;-145.83;100.00
7730;BME280;3908;52.310;7.230;2023-02-03T02:29:33;51483.47;;;-145.83;100.00
7730;BME280;3908;52.310;7.230;2023-02-03T02:32:37;51485.44;;;-145.83;100.00
7730;BME280;3908;52.310;7.230;2023-02-03T02:35:41;51497.19;;;-145.83;100.00
7730;BME280;3908;52.310;7.230;2023-02-03T02:38:44;51454.13;;;-145.83;100.00
7730;BME280;3908;52.310;7.230;2023-02-03T02:41:38;51477.63;;;-145.83;100.00
7730;BME280;3908;52.310;7.230;2023-02-03T02:44:29;51489.34;;;-145.83;100.00
7730;BME280;3908;52.310;7.230;2023-02-03T02:47:20;51448.28;;;-145.83;100.00
7730;BME280;3908;52.310;7.230;2023-02-03T02:50:16;51497.19;;;-145.83;100.00
7730;BME280;3908;52.310;7.230;2023-02-03T02:53:14;51489.34;;;-145.83;100.00
7730;BME280;3908;52.310;7.230;2023-02-03T02:56:06;51458.06;;;-145.83;100.00
7730;BME280;3908;52.310;7.230;2023-02-03T02:58:55;51456.09;;;-145.83;100.00
7730;BME280;3908;52.310;7.230;2023-02-03T03:01:43;51469.78;;;-145.83;100.00
7730;BME280;3908;52.310;7.230;2023-02-03T03:04:32;51491.31;;;-145.83;100.00
7730;BME280;3908;52.310;7.230;2023-02-03T03:07:23;51489.34;;;-145.83;100.00
7730;BME280;3908;52.310;7.230;2023-02-03T03:10:15;51481.53;;;-145.83;100.00
7730;BME280;3908;52.310;7.230;2023-02-03T03:13:09;51448.28;;;-145.83;100.00
7730;BME280;3908;52.310;7.230;2023-02-03T03:16:00;51460.00;;;-145.83;100.00
7730;BME280;3908;52.310;7.230;2023-02-03T03:18:50;51475.66;;;-145.83;100.00
7730;BME280;3908;52.310;7.230;2023-02-03T03:21:41;51506.97;;;-145.83;100.00
7730;BME280;3908;52.310;7.230;2023-02-03T03:24:33;51489.34;;;-145.83;100.00
7730;BME280;3908;52.310;7.230;2023-02-03T03:27:24;51505.00;;;-145.83;100.00
7730;BME280;3908;52.310;7.230;2023-02-03T03:30:15;51473.69;;;-145.83;100.00
7730;BME280;3908;52.310;7.230;2023-02-03T03:33:04;51471.75;;;-145.83;100.00
7730;BME280;3908;52.310;7.230;2023-02-03T03:35:57;51510.88;;;-145.83;100.00
7730;BME280;3908;52.310;7.230;2023-02-03T03:38:51;51479.56;;;-145.83;100.00
7730;BME280;3908;52.310;7.230;2023-02-03T03:41:49;51505.00;;;-145.83;100.00
7730;BME280;3908;52.310;7.230;2023-02-03T03:44:44;51505.00;;;-145.83;100.00
7730;BME280;3908;52.310;7.230;2023-02-03T03:47:40;51475.66;;;-145.83;100.00
7730;BME280;3908;52.310;7.230;2023-02-03T03:50:31;51473.69;;;-145.83;100.00
7730;BME280;3908;52.310;7.230;2023-02-03T03:53:22;51479.56;;;-145.83;100.00
7730;BME280;3908;52.310;7.230;2023-02-03T03:56:13;51460.00;;;-145.83;100.00
7730;BME280;3908;52.310;7.230;2023-02-03T03:59:03;51514.78;;;-145.83;100.00
7730;BME280;3908;52.310;7.230;2023-02-03T04:01:53;51493.25;;;-145.83;100.00
7730;BME280;3908;52.310;7.230;2023-02-03T04:04:41;51477.63;;;-145.83;100.00
7730;BME280;3908;52.310;7.230;2023-02-03T04:07:37;51520.66;;;-145.83;100.00
7730;BME280;3908;52.310;7.230;2023-02-03T04:10:29;51524.56;;;-145.83;100.00
7730;BME280;3908;52.310;7.230;2023-02-03T04:13:17;51505.00;;;-145.83;100.00
7730;BME280;3908;52.310;7.230;2023-02-03T04:16:07;51491.31;;;-145.83;100.00
7730;BME280;3908;52.310;7.230;2023-02-03T04:18:54;51471.75;;;-145.83;100.00
7730;BME280;3908;52.310;7.230;2023-02-03T04:21:41;51489.34;;;-145.83;100.00
7730;BME280;3908;52.310;7.230;2023-02-03T04:24:28;51512.84;;;-145.83;100.00
7730;BME280;3908;52.310;7.230;2023-02-03T04:27:15;51483.47;;;-145.83;100.00
7730;BME280;3908;52.310;7.230;2023-02-03T04:30:04;51473.69;;;-145.83;100.00
7730;BME280;3908;52.310;7.230;2023-02-03T04:32:53;51471.75;;;-145.83;100.00
7730;BME280;3908;52.310;7.230;2023-02-03T04:35:39;51473.69;;;-145.83;100.00
7730;BME280;3908;52.310;7.230;2023-02-03T04:38:26;51475.66;;;-145.83;100.00
7730;BME280;3908;52.310;7.230;2023-02-03T04:41:14;51479.56;;;-145.83;100.00
7730;BME280;3908;52.310;7.230;2023-02-03T04:44:01;51485.44;;;-145.83;100.00
7730;BME280;3908;52.310;7.230;2023-02-03T04:46:48;51475.66;;;-145.83;100.00
7730;BME280;3908;52.310;7.230;2023-02-03T04:49:36;51477.63;;;-145.83;100.00
7730;BME280;3908;52.310;7.230;2023-02-03T04:52:23;51460.00;;;-145.83;100.00
7730;BME280;3908;52.310;7.230;2023-02-03T04:55:15;51487.41;;;-145.83;100.00
7730;BME280;3908;52.310;7.230;2023-02-03T04:58:02;51479.56;;;-145.83;100.00
7730;BME280;3908;52.310;7.230;2023-02-03T05:00:49;51477.63;;;-145.83;100.00
7730;BME280;3908;52.310;7.230;2023-02-03T05:03:36;51503.06;;;-145.83;100.00
7730;BME280;3908;52.310;7.230;2023-02-03T05:06:26;51477.63;;;-145.83;100.00
7730;BME280;3908;52.310;7.230;2023-02-03T05:09:13;51460.00;;;-145.83;100.00
7730;BME280;3908;52.310;7.230;2023-02-03T05:12:00;51469.78;;;-145.83;100.00
7730;BME280;3908;52.310;7.230;2023-02-03T05:14:47;51481.53;;;-145.83;100.00
7730;BME280;3908;52.310;7.230;2023-02-03T05:17:34;51471.75;;;-145.83;100.00
7730;BME280;3908;52.310;7.230;2023-02-03T05:20:24;51489.34;;;-145.83;100.00
7730;BME280;3908;52.310;7.230;2023-02-03T05:23:14;51483.47;;;-145.83;100.00
7730;BME280;3908;52.310;7.230;2023-02-03T05:26:01;51483.47;;;-145.83;100.00
7730;BME280;3908;52.310;7.230;2023-02-03T05:28:48;51471.75;;;-145.83;100.00
7730;BME280;3908;52.310;7.230;2023-02-03T05:31:35;51505.00;;;-145.83;100.00
7730;BME280;3908;52.310;7.230;2023-02-03T05:34:22;51450.22;;;-145.83;100.00
7730;BME280;3908;52.310;7.230;2023-02-03T05:37:14;51489.34;;;-145.83;100.00
7730;BME280;3908;52.310;7.230;2023-02-03T05:40:03;51506.97;;;-145.83;100.00
7730;BME280;3908;52.310;7.230;2023-02-03T05:43:08;51512.84;;;-145.83;100.00
7730;BME280;3908;52.310;7.230;2023-02-03T05:45:58;51465.88;;;-145.83;100.00
7730;BME280;3908;52.310;7.230;2023-02-03T05:48:45;51475.66;;;-145.83;100.00
7730;BME280;3908;52.310;7.230;2023-02-03T05:51:32;51550.00;;;-145.83;100.00
7730;BME280;3908;52.310;7.230;2023-02-03T05:54:19;51471.75;;;-145.83;100.00
7730;BME280;3908;52.310;7.230;2023-02-03T05:57:08;51475.66;;;-145.83;100.00
7730;BME280;3908;52.310;7.230;2023-02-03T05:59:55;51483.47;;;-145.83;100.00
7730;BME280;3908;52.310;7.230;2023-02-03T06:02:42;51499.13;;;-145.83;100.00
7730;BME280;3908;52.310;7.230;2023-02-03T06:05:32;51456.09;;;-145.83;100.00
7730;BME280;3908;52.310;7.230;2023-02-03T06:08:19;51452.19;;;-145.83;100.00
7730;BME280;3908;52.310;7.230;2023-02-03T06:11:06;51483.47;;;-145.83;100.00
7730;BME280;3908;52.310;7.230;2023-02-03T06:13:55;51495.22;;;-145.83;100.00
7730;BME280;3908;52.310;7.230;2023-02-03T06:16:43;51493.25;;;-145.83;100.00
7730;BME280;3908;52.310;7.230;2023-02-03T06:19:33;51497.19;;;-145.83;100.00
7730;BME280;3908;52.310;7.230;2023-02-03T06:22:20;51508.91;;;-145.83;100.00
7730;BME280;3908;52.310;7.230;2023-02-03T06:25:08;51497.19;;;-145.83;100.00
7730;BME280;3908;52.310;7.230;2023-02-03T06:27:57;51479.56;;;-145.83;100.00
7730;BME280;3908;52.310;7.230;2023-02-03T06:30:50;51499.13;;;-145.83;100.00
7730;BME280;3908;52.310;7.230;2023-02-03T06:33:37;51489.34;;;-145.83;100.00
7730;BME280;3908;52.310;7.230;2023-02-03T06:36:24;51503.06;;;-145.83;100.00
7730;BME280;3908;52.310;7.230;2023-02-03T06:39:11;51465.88;;;-145.83;100.00
7730;BME280;3908;52.310;7.230;2023-02-03T06:41:58;51458.06;;;-145.83;100.00
7730;BME280;3908;52.310;7.230;2023-02-03T06:44:45;51501.09;;;-145.83;100.00
7730;BME280;3908;52.310;7.230;2023-02-03T06:47:33;51475.66;;;-145.83;100.00
7730;BME280;3908;52.310;7.230;2023-02-03T06:50:20;51483.47;;;-145.83;100.00
7730;BME280;3908;52.310;7.230;2023-02-03T06:53:07;51461.97;;;-145.83;100.00
7730;BME280;3908;52.310;7.230;2023-02-03T06:55:54;51487.41;;;-145.83;100.00
7730;BME280;3908;52.310;7.230;2023-02-03T06:58:41;51505.00;;;-145.83;100.00
7730;BME280;3908;52.310;7.230;2023-02-03T07:01:29;51508.91;;;-145.83;100.00
7730;BME280;3908;52.310;7.230;2023-02-03T07:04:17;51479.56;;;-145.83;100.00
7730;BME280;3908;52.310;7.230;2023-02-03T07:07:04;51469.78;;;-145.83;100.00
7730;BME280;3908;52.310;7.230;2023-02-03T07:09:51;51503.06;;;-145.83;100.00
7730;BME280;3908;52.310;7.230;2023-02-03T07:12:38;51544.13;;;-145.83;100.00
7730;BME280;3908;52.310;7.230;2023-02-03T07:15:25;51512.84;;;-145.83;100.00
7730;BME280;3908;52.310;7.230;2023-02-03T07:18:12;51485.44;;;-145.83;100.00
7730;BME280;3908;52.310;7.230;2023-02-03T07:21:03;51526.53;;;-145.83;100.00
7730;BME280;3908;52.310;7.230;2023-02-03T07:23:51;51489.34;;;-145.83;100.00
7730;BME280;3908;52.310;7.230;2023-02-03T07:26:40;51446.31;;;-145.83;100.00
7730;BME280;3908;52.310;7.230;2023-02-03T07:29:32;51461.97;;;-145.83;100.00
7730;BME280;3908;52.310;7.230;2023-02-03T07:32:34;51479.56;;;-145.83;100.00
7730;BME280;3908;52.310;7.230;2023-02-03T07:35:26;51516.75;;;-145.83;100.00
7730;BME280;3908;52.310;7.230;2023-02-03T07:38:22;51512.84;;;-145.83;100.00
7730;BME280;3908;52.310;7.230;2023-02-03T07:41:20;51471.75;;;-145.83;100.00
7730;BME280;3908;52.310;7.230;2023-02-03T07:44:15;51506.97;;;-145.83;100.00
7730;BME280;3908;52.310;7.230;2023-02-03T07:47:03;51495.22;;;-145.83;100.00
7730;BME280;3908;52.310;7.230;2023-02-03T07:49:50;51493.25;;;-145.83;100.00
7730;BME280;3908;52.310;7.230;2023-02-03T07:52:38;51487.41;;;-145.83;100.00
7730;BME280;3908;52.310;7.230;2023-02-03T07:55:26;51485.44;;;-145.83;100.00
7730;BME280;3908;52.310;7.230;2023-02-03T07:58:13;51487.41;;;-145.83;100.00
7730;BME280;3908;52.310;7.230;2023-02-03T08:01:09;51471.75;;;-145.83;100.00
7730;BME280;3908;52.310;7.230;2023-02-03T08:03:56;51495.22;;;-145.83;100.00
7730;BME280;3908;52.310;7.230;2023-02-03T08:06:43;51477.63;;;-145.83;100.00
7730;BME280;3908;52.310;7.230;2023-02-03T08:09:30;51536.31;;;-145.83;100.00
7730;BME280;3908;52.310;7.230;2023-02-03T08:12:18;51487.41;;;-145.83;100.00
7730;BME280;3908;52.310;7.230;2023-02-03T08:15:06;51485.44;;;-145.83;100.00
7730;BME280;3908;52.310;7.230;2023-02-03T08:17:53;51489.34;;;-145.83;100.00
7730;BME280;3908;52.310;7.230;2023-02-03T08:20:40;51508.91;;;-145.83;100.00
7730;BME280;3908;52.310;7.230;2023-02-03T08:23:27;51477.63;;;-145.83;100.00
7730;BME280;3908;52.310;7.230;2023-02-03T08:26:14;51510.88;;;-145.83;100.00
7730;BME280;3908;52.310;7.230;2023-02-03T08:29:03;51489.34;;;-145.83;100.00
7730;BME280;3908;52.310;7.230;2023-02-03T08:31:50;51495.22;;;-145.83;100.00
7730;BME280;3908;52.310;7.230;2023-02-03T08:34:38;51508.91;;;-145.83;100.00
7730;BME280;3908;52.310;7.230;2023-02-03T08:37:25;51473.69;;;-145.83;100.00
7730;BME280;3908;52.310;7.230;2023-02-03T08:40:13;51516.75;;;-145.83;100.00
7730;BME280;3908;52.310;7.230;2023-02-03T08:43:00;51489.34;;;-145.83;100.00
7730;BME280;3908;52.310;7.230;2023-02-03T08:45:49;51481.53;;;-145.83;100.00
7730;BME280;3908;52.310;7.230;2023-02-03T08:48:36;51493.25;;;-145.83;100.00
7730;BME280;3908;52.310;7.230;2023-02-03T08:51:23;51518.69;;;-145.83;100.00
7730;BME280;3908;52.310;7.230;2023-02-03T08:54:12;51458.06;;;-145.83;100.00
7730;BME280;3908;52.310;7.230;2023-02-03T08:56:58;51516.75;;;-145.83;100.00
7730;BME280;3908;52.310;7.230;2023-02-03T08:59:46;51505.00;;;-145.83;100.00
7730;BME280;3908;52.310;7.230;2023-02-03T09:02:34;51485.44;;;-145.83;100.00
7730;BME280;3908;52.310;7.230;2023-02-03T09:05:21;51499.13;;;-145.83;100.00
7730;BME280;3908;52.310;7.230;2023-02-03T09:08:09;51516.75;;;-145.83;100.00
7730;BME280;3908;52.310;7.230;2023-02-03T09:10:56;51510.88;;;-145.83;100.00
7730;BME280;3908;52.310;7.230;2023-02-03T09:13:43;51526.53;;;-145.83;100.00
7730;BME280;3908;52.310;7.230;2023-02-03T09:16:31;51499.13;;;-145.83;100.00
7730;BME280;3908;52.310;7.230;2023-02-03T09:19:19;51461.97;;;-145.83;100.00
7730;BME280;3908;52.310;7.230;2023-02-03T09:22:06;51475.66;;;-145.83;100.00
7730;BME280;3908;52.310;7.230;2023-02-03T09:24:53;51475.66;;;-145.83;100.00
7730;BME280;3908;52.310;7.230;2023-02-03T09:27:40;51475.66;;;-145.83;100.00
7730;BME280;3908;52.310;7.230;2023-02-03T09:30:27;51501.09;;;-145.83;100.00
7730;BME280;3908;52.310;7.230;2023-02-03T09:33:14;51481.53;;;-145.83;100.00
7730;BME280;3908;52.310;7.230;2023-02-03T09:36:04;51501.09;;;-145.83;100.00
7730;BME280;3908;52.310;7.230;2023-02-03T09:38:51;51534.34;;;-145.83;100.00
7730;BME280;3908;52.310;7.230;2023-02-03T09:42:01;51505.00;;;-145.83;100.00
7730;BME280;3908;52.310;7.230;2023-02-03T09:44:57;51495.22;;;-145.83;100.00
7730;BME280;3908;52.310;7.230;2023-02-03T09:47:46;51495.22;;;-145.83;100.00
7730;BME280;3908;52.310;7.230;2023-02-03T09:50:40;51493.25;;;-145.83;100.00
7730;BME280;3908;52.310;7.230;2023-02-03T09:53:34;51530.44;;;-145.83;100.00
7730;BME280;3908;52.310;7.230;2023-02-03T09:56:29;51503.06;;;-145.83;100.00
7730;BME280;3908;52.310;7.230;2023-02-03T09:59:17;51481.53;;;-145.83;100.00
7730;BME280;3908;52.310;7.230;2023-02-03T10:02:19;51530.44;;;-145.83;100.00
7730;BME280;3908;52.310;7.230;2023-02-03T10:05:15;51518.69;;;-145.83;100.00
7730;BME280;3908;52.310;7.230;2023-02-03T10:08:06;51501.09;;;-145.83;100.00
7730;BME280;3908;52.310;7.230;2023-02-03T10:11:06;51467.84;;;-145.83;100.00
7730;BME280;3908;52.310;7.230;2023-02-03T10:14:05;51481.53;;;-145.83;100.00
7730;BME280;3908;52.310;7.230;2023-02-03T10:17:06;51501.09;;;-145.83;100.00
7730;BME280;3908;52.310;7.230;2023-02-03T10:20:02;51503.06;;;-145.83;100.00
7730;BME280;3908;52.310;7.230;2023-02-03T10:22:52;51471.75;;;-145.83;100.00
7730;BME280;3908;52.310;7.230;2023-02-03T10:25:43;51495.22;;;-145.83;100.00
7730;BME280;3908;52.310;7.230;2023-02-03T10:28:38;51508.91;;;-145.83;100.00
7730;BME280;3908;52.310;7.230;2023-02-03T10:31:27;51497.19;;;-145.83;100.00
7730;BME280;3908;52.310;7.230;2023-02-03T10:34:15;51487.41;;;-145.83;100.00
7730;BME280;3908;52.310;7.230;2023-02-03T10:37:14;51516.75;;;-145.83;100.00
7730;BME280;3908;52.310;7.230;2023-02-03T10:40:04;51497.19;;;-145.83;100.00
7730;BME280;3908;52.310;7.230;2023-02-03T10:42:51;51495.22;;;-145.83;100.00
7730;BME280;3908;52.310;7.230;2023-02-03T10:45:57;51526.53;;;-145.83;100.00
7730;BME280;3908;52.310;7.230;2023-02-03T10:48:45;51501.09;;;-145.83;100.00
7730;BME280;3908;52.310;7.230;2023-02-03T10:51:36;51503.06;;;-145.83;100.00
7730;BME280;3908;52.310;7.230;2023-02-03T10:54:29;51520.66;;;-145.83;100.00
7730;BME280;3908;52.310;7.230;2023-02-03T10:57:16;51505.00;;;-145.83;100.00
7730;BME280;3908;52.310;7.230;2023-02-03T11:00:07;51528.47;;;-145.83;100.00
7730;BME280;3908;52.310;7.230;2023-02-03T11:03:19;51505.00;;;-145.83;100.00
7730;BME280;3908;52.310;7.230;2023-02-03T11:06:10;51505.00;;;-145.83;100.00
7730;BME280;3908;52.310;7.230;2023-02-03T11:08:57;51505.00;;;-145.83;100.00
7730;BME280;3908;52.310;7.230;2023-02-03T11:11:44;51489.34;;;-145.83;100.00
7730;BME280;3908;52.310;7.230;2023-02-03T11:14:35;51499.13;;;-145.83;100.00
7730;BME280;3908;52.310;7.230;2023-02-03T11:17:24;51491.31;;;-145.83;100.00
7730;BME280;3908;52.310;7.230;2023-02-03T11:20:14;51505.00;;;-145.83;100.00
7730;BME280;3908;52.310;7.230;2023-02-03T11:23:03;51467.84;;;-145.83;100.00
7730;BME280;3908;52.310;7.230;2023-02-03T11:25:51;51483.47;;;-145.83;100.00
7730;BME280;3908;52.310;7.230;2023-02-03T11:28:41;51497.19;;;-145.83;100.00
7730;BME280;3908;52.310;7.230;2023-02-03T11:31:31;51512.84;;;-145.83;100.00
7730;BME280;3908;52.310;7.230;2023-02-03T11:34:22;51460.00;;;-145.83;100.00
7730;BME280;3908;52.310;7.230;2023-02-03T11:37:26;51503.06;;;-145.83;100.00
7730;BME280;3908;52.310;7.230;2023-02-03T11:40:26;51501.09;;;-145.83;100.00
7730;BME280;3908;52.310;7.230;2023-02-03T11:43:15;51454.13;;;-145.83;100.00
7730;BME280;3908;52.310;7.230;2023-02-03T11:46:04;51493.25;;;-145.83;100.00
7730;BME280;3908;52.310;7.230;2023-02-03T11:49:02;51475.66;;;-145.83;100.00
7730;BME280;3908;52.310;7.230;2023-02-03T11:51:57;51489.34;;;-145.83;100.00
7730;BME280;3908;52.310;7.230;2023-02-03T11:54:56;51506.97;;;-145.83;100.00
7730;BME280;3908;52.310;7.230;2023-02-03T11:57:57;51477.63;;;-145.83;100.00
7730;BME280;3908;52.310;7.230;2023-02-03T12:00:53;51489.34;;;-145.83;100.00
7730;BME280;3908;52.310;7.230;2023-02-03T12:03:52;51469.78;;;-145.83;100.00
7730;BME280;3908;52.310;7.230;2023-02-03T12:07:04;51524.56;;;-145.83;100.00
7730;BME280;3908;52.310;7.230;2023-02-03T12:10:01;51495.22;;;-145.83;100.00
7730;BME280;3908;52.310;7.230;2023-02-03T12:12:57;51512.84;;;-145.83;100.00
7730;BME280;3908;52.310;7.230;2023-02-03T12:16:00;51510.88;;;-145.83;100.00
7730;BME280;3908;52.310;7.230;2023-02-03T12:19:00;51522.63;;;-145.83;100.00
7730;BME280;3908;52.310;7.230;2023-02-03T12:21:56;51528.47;;;-145.83;100.00
7730;BME280;3908;52.310;7.230;2023-02-03T12:24:53;51479.56;;;-145.83;100.00
7730;BME280;3908;52.310;7.230;2023-02-03T12:27:48;51501.09;;;-145.83;100.00
7730;BME280;3908;52.310;7.230;2023-02-03T12:30:42;51508.91;;;-145.83;100.00
7730;BME280;3908;52.310;7.230;2023-02-03T12:33:37;51522.63;;;-145.83;100.00
7730;BME280;3908;52.310;7.230;2023-02-03T12:36:32;51499.13;;;-145.83;100.00
7730;BME280;3908;52.310;7.230;2023-02-03T12:39:26;51514.78;;;-145.83;100.00
7730;BME280;3908;52.310;7.230;2023-02-03T12:42:16;51487.41;;;-145.83;100.00
7730;BME280;3908;52.310;7.230;2023-02-03T12:45:10;51501.09;;;-145.83;100.00
7730;BME280;3908;52.310;7.230;2023-02-03T12:48:01;51520.66;;;-145.83;100.00
7730;BME280;3908;52.310;7.230;2023-02-03T12:50:52;51483.47;;;-145.83;100.00
7730;BME280;3908;52.310;7.230;2023-02-03T12:53:44;51518.69;;;-145.83;100.00
7730;BME280;3908;52.310;7.230;2023-02-03T12:56:37;51483.47;;;-145.83;100.00
7730;BME280;3908;52.310;7.230;2023-02-03T12:59:28;51516.75;;;-145.83;100.00
7730;BME280;3908;52.310;7.230;2023-02-03T13:02:25;51489.34;;;-145.83;100.00
7730;BME280;3908;52.310;7.230;2023-02-03T13:05:20;51505.00;;;-145.83;100.00
7730;BME280;3908;52.310;7.230;2023-02-03T13:08:15;51491.31;;;-145.83;100.00
7730;BME280;3908;52.310;7.230;2023-02-03T13:11:11;51516.75;;;-145.83;100.00
7730;BME280;3908;52.310;7.230;2023-02-03T13:14:04;51487.41;;;-145.83;100.00
7730;BME280;3908;52.310;7.230;2023-02-03T13:17:00;51487.41;;;-145.83;99.57
7730;BME280;3908;52.310;7.230;2023-02-03T13:19:55;51481.53;;;-145.83;99.81
7730;BME280;3908;52.310;7.230;2023-02-03T13:22:44;51485.44;;;-145.83;100.00
7730;BME280;3908;52.310;7.230;2023-02-03T13:25:40;51497.19;;;-145.83;100.00
7730;BME280;3908;52.310;7.230;2023-02-03T13:28:44;51475.66;;;-145.83;100.00
7730;BME280;3908;52.310;7.230;2023-02-03T13:31:43;51491.31;;;-145.83;100.00
7730;BME280;3908;52.310;7.230;2023-02-03T13:34:46;51501.09;;;-145.83;100.00
7730;BME280;3908;52.310;7.230;2023-02-03T13:37:51;51473.69;;;-145.83;100.00
7730;BME280;3908;52.310;7.230;2023-02-03T13:40:51;51481.53;;;-145.83;100.00
7730;BME280;3908;52.310;7.230;2023-02-03T13:43:44;51471.75;;;-145.83;100.00
7730;BME280;3908;52.310;7.230;2023-02-03T13:46:34;51465.88;;;-145.83;100.00
7730;BME280;3908;52.310;7.230;2023-02-03T13:49:24;51450.22;;;-145.83;100.00
7730;BME280;3908;52.310;7.230;2023-02-03T13:52:28;51469.78;;;-145.83;100.00
7730;BME280;3908;52.310;7.230;2023-02-03T13:55:32;51532.41;;;-145.83;100.00
7730;BME280;3908;52.310;7.230;2023-02-03T13:58:22;51458.06;;;-145.83;100.00
7730;BME280;3908;52.310;7.230;2023-02-03T14:01:28;51495.22;;;-145.83;100.00
7730;BME280;3908;52.310;7.230;2023-02-03T14:04:51;51477.63;;;-145.83;100.00
7730;BME280;3908;52.310;7.230;2023-02-03T14:07:39;51487.41;;;-145.83;100.00
7730;BME280;3908;52.310;7.230;2023-02-03T14:10:28;51471.75;;;-145.83;99.60
7730;BME280;3908;52.310;7.230;2023-02-03T14:13:19;51479.56;;;-145.83;99.23
7730;BME280;3908;52.310;7.230;2023-02-03T14:16:20;51473.69;;;-145.83;99.35
7730;BME280;3908;52.310;7.230;2023-02-03T14:19:08;51456.09;;;-145.83;97.13
7730;BME280;3908;52.310;7.230;2023-02-03T14:21:57;51477.63;;;-145.83;97.61
7730;BME280;3908;52.310;7.230;2023-02-03T14:24:47;51491.31;;;-145.83;96.77
7730;BME280;3908;52.310;7.230;2023-02-03T14:27:36;51485.44;;;-145.83;97.07
7730;BME280;3908;52.310;7.230;2023-02-03T14:30:23;51456.09;;;-145.83;96.28
7730;BME280;3908;52.310;7.230;2023-02-03T14:33:10;51448.28;;;-145.83;97.07
7730;BME280;3908;52.310;7.230;2023-02-03T14:35:57;51465.88;;;-145.83;96.41
7730;BME280;3908;52.310;7.230;2023-02-03T14:38:44;51479.56;;;-145.83;95.72
7730;BME280;3908;52.310;7.230;2023-02-03T14:41:47;51436.53;;;-145.83;96.17
7730;BME280;3908;52.310;7.230;2023-02-03T14:44:44;51479.56;;;-145.83;96.27
7730;BME280;3908;52.310;7.230;2023-02-03T14:47:47;51452.19;;;-145.83;96.69
7730;BME280;3908;52.310;7.230;2023-02-03T14:50:49;51471.75;;;-145.83;96.12
7730;BME280;3908;52.310;7.230;2023-02-03T14:53:55;51471.75;;;-145.83;97.14
7730;BME280;3908;52.310;7.230;2023-02-03T14:56:52;51489.34;;;-145.83;95.72